Aeroporto :
LOGIN :

Iscrizione | Disclaimer

   EN    FR    IT 

 










Sommario :    VFR   VFR Marginale   IFR   IFR Intensivo   IFR Molto Intensivo
Visibilità : 
Base nubi : 
>= 8 km
>= 3000ft
5 / 8 km
1000 / 3000 ft
1500m / 5 km
500 / 1000 ft
800 / 1500m
200 / 500 ft
< 800m
< 200 ft
Simboli :   Temporali  Nebbia  Neve Forte  Precipitazioni Forti  Vento > 20 kt
SIGMETs :   Varie  Temporali  Ghiacco  Turbolenza  Onda orograficha  Ceneri Vulcaniche






- Altitudine del aeroporto : 194 ft


EBCV - Chièvres

ULTIMO METAR :
  • 121755Z AUTO 21014KT 9999 FEW130/// SCT170/// 05/03 Q1000 BLU

METARs OBSOLETI :
  • 121725Z AUTO 21013KT 9999 FEW160/// 05/03 Q1000 BLU
  • 121655Z AUTO 21013KT 9999 NCD 05/03 Q1000 BLU
  • 121625Z AUTO 21013KT 9999 NCD 05/03 Q1000 BLU
  • 121555Z AUTO 20011KT 9999 NCD 06/03 Q1000 BLU
  • 121543Z AUTO 20011KT 9999 FEW032/// 06/03 Q1001 BLU
  • 121525Z AUTO 20013KT 9999 SCT021/// 06/03 Q1001 WHT

TAF TAF EBCV
Valido dal 12 a 13 ore il 12 a 22 ore UTC


121141Z 1213/1222 23010G20KT 9999 FEW020
TEMPO 1213/1216 4500 -SHRA SCT017
PROB30
TEMPO 1213/1214 22010G25KT 3000 TSRA BKN015CB
BECMG 1219/1221 7000 -RA -SHRA BKN022 BY EBWM



MetMap, La meteo Aeronautica in un colpo d'occhio ! - Copyright ORBIFLY Dicembre 2007 - Disclaimer

ORBIFLY MET'MAP TEAM :

Programmazione e sviluppo : Alexandra Zaïnal
Concezione e sviluppo : Baudouin d'Aumeries
Co-Programmazione e sviluppo : Marc-Olivier Méhu
Supporto tecnico e logistico : Manuel Goepfert
Aiuto per la traduzione : Arnaldo La Scala

Contatto : metmap@orbifly.com




FONTI E CREDITI :

   NOAA